PRV weather

La Providencia de Acapetahua Airport
Escuintla, Chiapas, Mexico

Public forecast

Using degrees Celsius for public forecast. Weather courtesy of forecast.io.

Closest aviation weather report (METAR) to La Providencia de Acapetahua Airport

Closest report is Tapachula International Airport, 36.8 nm (68.2 km) SE. Retrieved 2020/02/24 01:40 UTC (50 minutes ago):

MMTP 240140Z 00000KT 10SM SKC 26/22 A2988

Closest aviation forecast (TAF) to La Providencia de Acapetahua Airport

Closest forecast is Tapachula International Airport, 36.8 nm (68.2 km) SE. Retrieved 2020-02-24 00:21 UTC (2 hours ago):

TAF MMTP 232319Z 2400/2506 24015KT P6SM SCT030 FM240600 34005KT 6SM HZ SCT040 SCT100 FM241800 22012KT P6SM BKN030 FM250300 34010KT P6SM SCT030 SCT100